sensor_id;sensor_type;location;lat;lon;timestamp;P1;durP1;ratioP1;P2;durP2;ratioP2
83199;SDS011;73092;49.132;8.920;2023-11-19T00:00:23;9.95;;;5.60;;
83199;SDS011;73092;49.132;8.920;2023-11-19T00:12:32;7.68;;;5.65;;
83199;SDS011;73092;49.132;8.920;2023-11-19T00:21:40;16.17;;;9.32;;
83199;SDS011;73092;49.132;8.920;2023-11-19T00:27:27;15.98;;;10.07;;
83199;SDS011;73092;49.132;8.920;2023-11-19T00:37:13;11.63;;;7.18;;
83199;SDS011;73092;49.132;8.920;2023-11-19T00:43:01;9.13;;;6.93;;
83199;SDS011;73092;49.132;8.920;2023-11-19T00:48:48;12.95;;;7.75;;
83199;SDS011;73092;49.132;8.920;2023-11-19T00:54:35;8.75;;;6.10;;
83199;SDS011;73092;49.132;8.920;2023-11-19T01:00:23;8.95;;;6.13;;
83199;SDS011;73092;49.132;8.920;2023-11-19T01:06:13;9.95;;;5.85;;
83199;SDS011;73092;49.132;8.920;2023-11-19T01:12:01;10.90;;;6.43;;
83199;SDS011;73092;49.132;8.920;2023-11-19T01:17:48;9.65;;;6.88;;
83199;SDS011;73092;49.132;8.920;2023-11-19T01:23:42;10.48;;;7.32;;
83199;SDS011;73092;49.132;8.920;2023-11-19T01:29:30;18.25;;;8.35;;
83199;SDS011;73092;49.132;8.920;2023-11-19T01:49:58;15.95;;;9.02;;
83199;SDS011;73092;49.132;8.920;2023-11-19T01:52:24;14.80;;;9.55;;
83199;SDS011;73092;49.132;8.920;2023-11-19T01:54:51;13.25;;;8.88;;
83199;SDS011;73092;49.132;8.920;2023-11-19T01:57:18;18.08;;;10.23;;
83199;SDS011;73092;49.132;8.920;2023-11-19T01:59:46;14.80;;;9.98;;
83199;SDS011;73092;49.132;8.920;2023-11-19T02:02:11;16.48;;;9.27;;
83199;SDS011;73092;49.132;8.920;2023-11-19T02:04:37;15.77;;;9.65;;
83199;SDS011;73092;49.132;8.920;2023-11-19T02:07:03;15.40;;;9.75;;
83199;SDS011;73092;49.132;8.920;2023-11-19T02:09:29;16.95;;;9.48;;
83199;SDS011;73092;49.132;8.920;2023-11-19T02:11:55;16.25;;;10.18;;
83199;SDS011;73092;49.132;8.920;2023-11-19T02:14:22;17.38;;;9.05;;
83199;SDS011;73092;49.132;8.920;2023-11-19T02:16:50;12.13;;;8.15;;
83199;SDS011;73092;49.132;8.920;2023-11-19T02:19:18;11.02;;;7.97;;
83199;SDS011;73092;49.132;8.920;2023-11-19T02:21:44;12.43;;;8.73;;
83199;SDS011;73092;49.132;8.920;2023-11-19T02:24:10;10.88;;;7.70;;
83199;SDS011;73092;49.132;8.920;2023-11-19T02:29:12;15.52;;;8.07;;
83199;SDS011;73092;49.132;8.920;2023-11-19T02:31:39;11.20;;;7.82;;
83199;SDS011;73092;49.132;8.920;2023-11-19T02:34:04;11.45;;;7.18;;
83199;SDS011;73092;49.132;8.920;2023-11-19T02:36:31;9.98;;;7.10;;
83199;SDS011;73092;49.132;8.920;2023-11-19T02:38:57;9.18;;;7.00;;
83199;SDS011;73092;49.132;8.920;2023-11-19T02:41:23;11.35;;;7.00;;
83199;SDS011;73092;49.132;8.920;2023-11-19T02:43:48;9.35;;;6.07;;
83199;SDS011;73092;49.132;8.920;2023-11-19T02:46:13;11.50;;;7.75;;
83199;SDS011;73092;49.132;8.920;2023-11-19T02:48:39;13.17;;;7.50;;
83199;SDS011;73092;49.132;8.920;2023-11-19T02:51:05;11.65;;;7.35;;
83199;SDS011;73092;49.132;8.920;2023-11-19T02:53:34;9.95;;;6.82;;
83199;SDS011;73092;49.132;8.920;2023-11-19T02:56:02;9.98;;;7.40;;
83199;SDS011;73092;49.132;8.920;2023-11-19T02:58:36;12.40;;;6.80;;
83199;SDS011;73092;49.132;8.920;2023-11-19T03:01:02;8.77;;;6.30;;
83199;SDS011;73092;49.132;8.920;2023-11-19T03:03:37;8.45;;;6.45;;
83199;SDS011;73092;49.132;8.920;2023-11-19T03:06:06;11.10;;;7.00;;
83199;SDS011;73092;49.132;8.920;2023-11-19T03:08:32;12.77;;;7.68;;
83199;SDS011;73092;49.132;8.920;2023-11-19T03:11:00;7.85;;;5.75;;
83199;SDS011;73092;49.132;8.920;2023-11-19T03:13:25;9.63;;;6.78;;
83199;SDS011;73092;49.132;8.920;2023-11-19T03:15:51;9.85;;;5.78;;
83199;SDS011;73092;49.132;8.920;2023-11-19T03:18:18;8.52;;;5.70;;
83199;SDS011;73092;49.132;8.920;2023-11-19T03:20:44;10.25;;;6.03;;
83199;SDS011;73092;49.132;8.920;2023-11-19T03:23:11;11.00;;;7.38;;
83199;SDS011;73092;49.132;8.920;2023-11-19T03:25:37;9.77;;;6.28;;
83199;SDS011;73092;49.132;8.920;2023-11-19T03:28:03;7.85;;;6.35;;
83199;SDS011;73092;49.132;8.920;2023-11-19T03:30:31;8.25;;;5.95;;
83199;SDS011;73092;49.132;8.920;2023-11-19T03:32:57;7.10;;;5.88;;
83199;SDS011;73092;49.132;8.920;2023-11-19T03:35:23;6.90;;;5.38;;
83199;SDS011;73092;49.132;8.920;2023-11-19T03:37:49;7.43;;;5.00;;
83199;SDS011;73092;49.132;8.920;2023-11-19T03:40:16;9.45;;;5.85;;
83199;SDS011;73092;49.132;8.920;2023-11-19T03:42:41;8.60;;;4.28;;
83199;SDS011;73092;49.132;8.920;2023-11-19T03:45:07;6.78;;;5.50;;
83199;SDS011;73092;49.132;8.920;2023-11-19T03:47:34;4.20;;;3.00;;
83199;SDS011;73092;49.132;8.920;2023-11-19T03:49:59;5.82;;;2.90;;
83199;SDS011;73092;49.132;8.920;2023-11-19T03:52:25;3.03;;;2.67;;
83199;SDS011;73092;49.132;8.920;2023-11-19T03:54:52;3.85;;;2.75;;
83199;SDS011;73092;49.132;8.920;2023-11-19T03:57:20;4.88;;;2.50;;
83199;SDS011;73092;49.132;8.920;2023-11-19T03:59:46;3.60;;;2.67;;
83199;SDS011;73092;49.132;8.920;2023-11-19T04:02:11;4.45;;;2.28;;
83199;SDS011;73092;49.132;8.920;2023-11-19T04:04:37;4.70;;;2.20;;
83199;SDS011;73092;49.132;8.920;2023-11-19T04:07:03;2.90;;;2.58;;
83199;SDS011;73092;49.132;8.920;2023-11-19T04:09:29;2.72;;;2.22;;
83199;SDS011;73092;49.132;8.920;2023-11-19T04:11:55;3.00;;;2.63;;
83199;SDS011;73092;49.132;8.920;2023-11-19T04:14:21;3.60;;;2.55;;
83199;SDS011;73092;49.132;8.920;2023-11-19T04:16:46;3.13;;;2.70;;
83199;SDS011;73092;49.132;8.920;2023-11-19T04:19:12;4.28;;;2.40;;
83199;SDS011;73092;49.132;8.920;2023-11-19T04:21:40;2.23;;;2.03;;
83199;SDS011;73092;49.132;8.920;2023-11-19T04:24:08;2.30;;;2.10;;
83199;SDS011;73092;49.132;8.920;2023-11-19T04:26:39;2.88;;;2.20;;
83199;SDS011;73092;49.132;8.920;2023-11-19T04:29:05;4.07;;;2.25;;
83199;SDS011;73092;49.132;8.920;2023-11-19T04:31:31;2.77;;;2.40;;
83199;SDS011;73092;49.132;8.920;2023-11-19T04:33:56;5.78;;;2.33;;
83199;SDS011;73092;49.132;8.920;2023-11-19T04:36:22;3.83;;;2.38;;
83199;SDS011;73092;49.132;8.920;2023-11-19T04:38:49;2.95;;;2.15;;
83199;SDS011;73092;49.132;8.920;2023-11-19T04:41:14;3.17;;;2.42;;
83199;SDS011;73092;49.132;8.920;2023-11-19T04:43:40;2.73;;;2.47;;
83199;SDS011;73092;49.132;8.920;2023-11-19T04:46:05;2.73;;;1.90;;
83199;SDS011;73092;49.132;8.920;2023-11-19T04:48:31;5.10;;;2.38;;
83199;SDS011;73092;49.132;8.920;2023-11-19T04:50:56;3.90;;;2.73;;
83199;SDS011;73092;49.132;8.920;2023-11-19T04:53:21;4.40;;;2.63;;
83199;SDS011;73092;49.132;8.920;2023-11-19T04:55:47;2.43;;;2.13;;
83199;SDS011;73092;49.132;8.920;2023-11-19T04:58:12;3.80;;;2.30;;
83199;SDS011;73092;49.132;8.920;2023-11-19T05:00:38;2.53;;;2.00;;
83199;SDS011;73092;49.132;8.920;2023-11-19T05:03:03;2.28;;;2.08;;
83199;SDS011;73092;49.132;8.920;2023-11-19T05:05:28;2.85;;;2.22;;
83199;SDS011;73092;49.132;8.920;2023-11-19T05:07:54;5.20;;;2.42;;
83199;SDS011;73092;49.132;8.920;2023-11-19T05:10:20;2.53;;;2.33;;
83199;SDS011;73092;49.132;8.920;2023-11-19T05:12:45;3.38;;;1.98;;
83199;SDS011;73092;49.132;8.920;2023-11-19T05:15:11;8.98;;;2.10;;
83199;SDS011;73092;49.132;8.920;2023-11-19T05:17:37;4.40;;;2.22;;
83199;SDS011;73092;49.132;8.920;2023-11-19T05:20:02;6.55;;;2.30;;
83199;SDS011;73092;49.132;8.920;2023-11-19T05:22:28;3.85;;;2.20;;
83199;SDS011;73092;49.132;8.920;2023-11-19T05:24:53;2.77;;;2.40;;
83199;SDS011;73092;49.132;8.920;2023-11-19T05:27:19;3.15;;;2.33;;
83199;SDS011;73092;49.132;8.920;2023-11-19T05:29:44;6.37;;;2.70;;
83199;SDS011;73092;49.132;8.920;2023-11-19T05:32:10;2.43;;;2.23;;
83199;SDS011;73092;49.132;8.920;2023-11-19T05:34:35;3.53;;;2.37;;
83199;SDS011;73092;49.132;8.920;2023-11-19T05:37:00;2.43;;;2.10;;
83199;SDS011;73092;49.132;8.920;2023-11-19T05:39:27;4.32;;;2.30;;
83199;SDS011;73092;49.132;8.920;2023-11-19T05:41:53;2.92;;;2.33;;
83199;SDS011;73092;49.132;8.920;2023-11-19T05:44:18;4.70;;;2.17;;
83199;SDS011;73092;49.132;8.920;2023-11-19T05:46:44;4.28;;;2.28;;
83199;SDS011;73092;49.132;8.920;2023-11-19T05:49:10;4.65;;;2.30;;
83199;SDS011;73092;49.132;8.920;2023-11-19T05:51:39;3.42;;;2.25;;
83199;SDS011;73092;49.132;8.920;2023-11-19T05:54:09;3.55;;;2.08;;
83199;SDS011;73092;49.132;8.920;2023-11-19T05:56:35;2.88;;;2.15;;
83199;SDS011;73092;49.132;8.920;2023-11-19T05:59:00;3.38;;;2.03;;
83199;SDS011;73092;49.132;8.920;2023-11-19T06:03:54;4.72;;;2.10;;
83199;SDS011;73092;49.132;8.920;2023-11-19T06:06:19;3.35;;;2.10;;
83199;SDS011;73092;49.132;8.920;2023-11-19T06:08:45;2.33;;;2.08;;
83199;SDS011;73092;49.132;8.920;2023-11-19T06:11:11;2.45;;;2.05;;
83199;SDS011;73092;49.132;8.920;2023-11-19T06:13:42;2.92;;;2.20;;
83199;SDS011;73092;49.132;8.920;2023-11-19T06:16:08;2.35;;;2.13;;
83199;SDS011;73092;49.132;8.920;2023-11-19T06:18:33;2.20;;;2.00;;
83199;SDS011;73092;49.132;8.920;2023-11-19T06:20:59;2.13;;;1.93;;
83199;SDS011;73092;49.132;8.920;2023-11-19T06:23:24;3.00;;;2.47;;
83199;SDS011;73092;49.132;8.920;2023-11-19T06:25:49;3.10;;;2.00;;
83199;SDS011;73092;49.132;8.920;2023-11-19T06:28:15;6.17;;;1.97;;
83199;SDS011;73092;49.132;8.920;2023-11-19T06:30:40;4.53;;;2.23;;
83199;SDS011;73092;49.132;8.920;2023-11-19T06:33:06;3.25;;;2.22;;
83199;SDS011;73092;49.132;8.920;2023-11-19T06:35:32;2.42;;;2.15;;
83199;SDS011;73092;49.132;8.920;2023-11-19T06:38:01;2.28;;;2.08;;
83199;SDS011;73092;49.132;8.920;2023-11-19T06:40:29;2.75;;;2.10;;
83199;SDS011;73092;49.132;8.920;2023-11-19T06:42:55;2.08;;;1.83;;
83199;SDS011;73092;49.132;8.920;2023-11-19T06:45:20;2.60;;;1.90;;
83199;SDS011;73092;49.132;8.920;2023-11-19T06:47:45;3.70;;;2.10;;
83199;SDS011;73092;49.132;8.920;2023-11-19T06:50:10;3.03;;;2.10;;
83199;SDS011;73092;49.132;8.920;2023-11-19T06:52:37;3.60;;;1.70;;
83199;SDS011;73092;49.132;8.920;2023-11-19T06:55:03;4.30;;;1.65;;
83199;SDS011;73092;49.132;8.920;2023-11-19T06:57:29;2.05;;;1.77;;
83199;SDS011;73092;49.132;8.920;2023-11-19T06:59:56;2.10;;;1.90;;
83199;SDS011;73092;49.132;8.920;2023-11-19T07:02:22;2.20;;;2.03;;
83199;SDS011;73092;49.132;8.920;2023-11-19T07:04:47;1.70;;;1.60;;
83199;SDS011;73092;49.132;8.920;2023-11-19T07:07:13;3.50;;;1.60;;
83199;SDS011;73092;49.132;8.920;2023-11-19T07:09:40;2.88;;;1.90;;
83199;SDS011;73092;49.132;8.920;2023-11-19T07:12:05;2.20;;;1.85;;
83199;SDS011;73092;49.132;8.920;2023-11-19T07:14:34;2.05;;;1.80;;
83199;SDS011;73092;49.132;8.920;2023-11-19T07:16:59;2.70;;;1.58;;
83199;SDS011;73092;49.132;8.920;2023-11-19T07:19:25;3.15;;;1.98;;
83199;SDS011;73092;49.132;8.920;2023-11-19T07:21:51;3.97;;;1.63;;
83199;SDS011;73092;49.132;8.920;2023-11-19T07:24:19;2.22;;;2.00;;
83199;SDS011;73092;49.132;8.920;2023-11-19T07:26:45;5.20;;;1.90;;
83199;SDS011;73092;49.132;8.920;2023-11-19T07:29:12;2.35;;;1.70;;
83199;SDS011;73092;49.132;8.920;2023-11-19T07:31:37;3.55;;;2.33;;
83199;SDS011;73092;49.132;8.920;2023-11-19T07:34:03;3.37;;;1.97;;
83199;SDS011;73092;49.132;8.920;2023-11-19T07:36:30;2.53;;;2.05;;
83199;SDS011;73092;49.132;8.920;2023-11-19T07:38:56;2.92;;;1.92;;
83199;SDS011;73092;49.132;8.920;2023-11-19T07:41:22;3.53;;;2.40;;
83199;SDS011;73092;49.132;8.920;2023-11-19T07:43:48;2.80;;;2.20;;
83199;SDS011;73092;49.132;8.920;2023-11-19T07:46:14;3.15;;;2.10;;
83199;SDS011;73092;49.132;8.920;2023-11-19T07:48:40;2.20;;;1.90;;
83199;SDS011;73092;49.132;8.920;2023-11-19T07:51:06;5.03;;;2.00;;
83199;SDS011;73092;49.132;8.920;2023-11-19T07:53:31;2.45;;;2.03;;
83199;SDS011;73092;49.132;8.920;2023-11-19T07:55:58;2.40;;;2.15;;
83199;SDS011;73092;49.132;8.920;2023-11-19T07:58:24;3.50;;;2.05;;
83199;SDS011;73092;49.132;8.920;2023-11-19T08:00:50;2.22;;;2.03;;
83199;SDS011;73092;49.132;8.920;2023-11-19T08:03:17;3.67;;;1.80;;
83199;SDS011;73092;49.132;8.920;2023-11-19T08:05:43;2.50;;;1.95;;
83199;SDS011;73092;49.132;8.920;2023-11-19T08:08:09;2.95;;;1.85;;
83199;SDS011;73092;49.132;8.920;2023-11-19T08:10:35;2.33;;;2.10;;
83199;SDS011;73092;49.132;8.920;2023-11-19T08:13:00;2.17;;;1.97;;
83199;SDS011;73092;49.132;8.920;2023-11-19T08:15:26;2.83;;;2.63;;
83199;SDS011;73092;49.132;8.920;2023-11-19T08:17:52;3.22;;;2.00;;
83199;SDS011;73092;49.132;8.920;2023-11-19T08:20:18;2.15;;;1.95;;
83199;SDS011;73092;49.132;8.920;2023-11-19T08:22:43;2.80;;;2.28;;
83199;SDS011;73092;49.132;8.920;2023-11-19T08:25:09;2.47;;;2.00;;
83199;SDS011;73092;49.132;8.920;2023-11-19T08:27:34;2.50;;;2.10;;
83199;SDS011;73092;49.132;8.920;2023-11-19T08:29:59;3.13;;;2.33;;
83199;SDS011;73092;49.132;8.920;2023-11-19T08:32:28;2.33;;;1.97;;
83199;SDS011;73092;49.132;8.920;2023-11-19T08:34:53;2.13;;;1.92;;
83199;SDS011;73092;49.132;8.920;2023-11-19T08:37:19;3.13;;;1.83;;
83199;SDS011;73092;49.132;8.920;2023-11-19T08:39:49;2.67;;;2.30;;
83199;SDS011;73092;49.132;8.920;2023-11-19T08:42:15;2.38;;;2.17;;
83199;SDS011;73092;49.132;8.920;2023-11-19T08:44:41;5.18;;;2.45;;
83199;SDS011;73092;49.132;8.920;2023-11-19T08:47:09;2.65;;;1.63;;
83199;SDS011;73092;49.132;8.920;2023-11-19T08:49:35;2.63;;;2.42;;
83199;SDS011;73092;49.132;8.920;2023-11-19T08:52:00;2.75;;;1.83;;
83199;SDS011;73092;49.132;8.920;2023-11-19T08:54:26;2.38;;;1.75;;
83199;SDS011;73092;49.132;8.920;2023-11-19T08:56:52;2.85;;;2.17;;
83199;SDS011;73092;49.132;8.920;2023-11-19T08:59:17;2.85;;;1.95;;
83199;SDS011;73092;49.132;8.920;2023-11-19T09:01:44;2.42;;;2.22;;
83199;SDS011;73092;49.132;8.920;2023-11-19T09:04:09;2.05;;;1.83;;
83199;SDS011;73092;49.132;8.920;2023-11-19T09:06:35;6.57;;;2.50;;
83199;SDS011;73092;49.132;8.920;2023-11-19T09:09:00;4.30;;;2.38;;
83199;SDS011;73092;49.132;8.920;2023-11-19T09:11:28;2.95;;;1.88;;
83199;SDS011;73092;49.132;8.920;2023-11-19T09:13:53;2.25;;;1.90;;
83199;SDS011;73092;49.132;8.920;2023-11-19T09:16:19;2.17;;;1.97;;
83199;SDS011;73092;49.132;8.920;2023-11-19T09:18:44;4.07;;;2.27;;
83199;SDS011;73092;49.132;8.920;2023-11-19T09:21:13;2.73;;;2.07;;
83199;SDS011;73092;49.132;8.920;2023-11-19T09:23:44;2.47;;;1.90;;
83199;SDS011;73092;49.132;8.920;2023-11-19T09:26:09;5.80;;;2.05;;
83199;SDS011;73092;49.132;8.920;2023-11-19T09:28:35;3.07;;;1.80;;
83199;SDS011;73092;49.132;8.920;2023-11-19T09:31:01;4.75;;;2.08;;
83199;SDS011;73092;49.132;8.920;2023-11-19T09:33:35;10.05;;;3.63;;
83199;SDS011;73092;49.132;8.920;2023-11-19T09:36:01;5.22;;;2.35;;
83199;SDS011;73092;49.132;8.920;2023-11-19T09:38:26;5.00;;;2.00;;
83199;SDS011;73092;49.132;8.920;2023-11-19T09:40:52;2.97;;;1.87;;
83199;SDS011;73092;49.132;8.920;2023-11-19T09:43:17;3.05;;;1.85;;
83199;SDS011;73092;49.132;8.920;2023-11-19T09:45:47;2.55;;;2.20;;
83199;SDS011;73092;49.132;8.920;2023-11-19T09:48:17;2.72;;;2.00;;
83199;SDS011;73092;49.132;8.920;2023-11-19T09:50:46;3.50;;;2.05;;
83199;SDS011;73092;49.132;8.920;2023-11-19T09:53:12;3.95;;;2.42;;
83199;SDS011;73092;49.132;8.920;2023-11-19T09:55:38;4.40;;;2.22;;
83199;SDS011;73092;49.132;8.920;2023-11-19T09:58:03;3.57;;;2.00;;
83199;SDS011;73092;49.132;8.920;2023-11-19T10:00:30;2.67;;;1.95;;
83199;SDS011;73092;49.132;8.920;2023-11-19T10:02:56;3.42;;;2.83;;
83199;SDS011;73092;49.132;8.920;2023-11-19T10:05:22;2.92;;;2.47;;
83199;SDS011;73092;49.132;8.920;2023-11-19T10:07:49;4.28;;;2.58;;
83199;SDS011;73092;49.132;8.920;2023-11-19T10:10:15;3.38;;;2.78;;
83199;SDS011;73092;49.132;8.920;2023-11-19T10:12:44;6.05;;;2.38;;
83199;SDS011;73092;49.132;8.920;2023-11-19T10:15:15;5.93;;;3.42;;
83199;SDS011;73092;49.132;8.920;2023-11-19T10:17:52;4.75;;;2.85;;
83199;SDS011;73092;49.132;8.920;2023-11-19T10:20:21;3.20;;;2.90;;
83199;SDS011;73092;49.132;8.920;2023-11-19T10:22:46;6.97;;;2.90;;
83199;SDS011;73092;49.132;8.920;2023-11-19T10:25:21;4.40;;;2.50;;
83199;SDS011;73092;49.132;8.920;2023-11-19T10:27:48;5.35;;;2.67;;
83199;SDS011;73092;49.132;8.920;2023-11-19T10:30:20;4.05;;;2.42;;
83199;SDS011;73092;49.132;8.920;2023-11-19T10:35:30;6.90;;;2.65;;
83199;SDS011;73092;49.132;8.920;2023-11-19T10:37:58;5.38;;;2.42;;
83199;SDS011;73092;49.132;8.920;2023-11-19T10:40:25;6.50;;;2.42;;
83199;SDS011;73092;49.132;8.920;2023-11-19T10:43:02;2.65;;;2.17;;
83199;SDS011;73092;49.132;8.920;2023-11-19T10:45:28;4.40;;;2.47;;
83199;SDS011;73092;49.132;8.920;2023-11-19T10:47:53;5.90;;;3.85;;
83199;SDS011;73092;49.132;8.920;2023-11-19T10:50:20;5.55;;;2.38;;
83199;SDS011;73092;49.132;8.920;2023-11-19T10:52:45;3.58;;;3.00;;
83199;SDS011;73092;49.132;8.920;2023-11-19T10:57:40;2.72;;;2.05;;
83199;SDS011;73092;49.132;8.920;2023-11-19T11:00:09;3.58;;;1.95;;
83199;SDS011;73092;49.132;8.920;2023-11-19T11:02:38;2.28;;;2.00;;
83199;SDS011;73092;49.132;8.920;2023-11-19T11:05:07;5.28;;;2.15;;
83199;SDS011;73092;49.132;8.920;2023-11-19T11:07:33;4.38;;;2.38;;
83199;SDS011;73092;49.132;8.920;2023-11-19T11:10:00;2.88;;;2.17;;
83199;SDS011;73092;49.132;8.920;2023-11-19T11:12:26;4.63;;;2.60;;
83199;SDS011;73092;49.132;8.920;2023-11-19T11:14:53;7.10;;;2.42;;
83199;SDS011;73092;49.132;8.920;2023-11-19T11:17:19;5.20;;;2.30;;
83199;SDS011;73092;49.132;8.920;2023-11-19T11:19:52;2.03;;;1.80;;
83199;SDS011;73092;49.132;8.920;2023-11-19T11:22:17;4.47;;;2.25;;
83199;SDS011;73092;49.132;8.920;2023-11-19T11:27:38;5.75;;;2.33;;
83199;SDS011;73092;49.132;8.920;2023-11-19T11:33:11;3.65;;;3.05;;
83199;SDS011;73092;49.132;8.920;2023-11-19T11:35:51;3.85;;;2.45;;
83199;SDS011;73092;49.132;8.920;2023-11-19T11:38:28;3.55;;;2.35;;
83199;SDS011;73092;49.132;8.920;2023-11-19T11:41:15;2.83;;;2.33;;
83199;SDS011;73092;49.132;8.920;2023-11-19T11:43:44;16.00;;;4.82;;
83199;SDS011;73092;49.132;8.920;2023-11-19T11:49:06;4.25;;;2.80;;
83199;SDS011;73092;49.132;8.920;2023-11-19T11:54:10;5.38;;;2.95;;
83199;SDS011;73092;49.132;8.920;2023-11-19T12:02:09;5.13;;;2.58;;
83199;SDS011;73092;49.132;8.920;2023-11-19T12:04:41;3.30;;;2.13;;
83199;SDS011;73092;49.132;8.920;2023-11-19T12:07:14;5.55;;;2.38;;
83199;SDS011;73092;49.132;8.920;2023-11-19T12:09:43;3.88;;;1.92;;
83199;SDS011;73092;49.132;8.920;2023-11-19T12:12:22;6.57;;;2.28;;
83199;SDS011;73092;49.132;8.920;2023-11-19T12:15:03;4.13;;;2.40;;
83199;SDS011;73092;49.132;8.920;2023-11-19T12:20:14;4.82;;;2.85;;
83199;SDS011;73092;49.132;8.920;2023-11-19T12:22:42;5.75;;;2.97;;
83199;SDS011;73092;49.132;8.920;2023-11-19T12:27:35;5.40;;;2.80;;
83199;SDS011;73092;49.132;8.920;2023-11-19T12:30:05;5.50;;;2.83;;
83199;SDS011;73092;49.132;8.920;2023-11-19T12:32:37;3.28;;;2.30;;
83199;SDS011;73092;49.132;8.920;2023-11-19T12:35:04;6.20;;;2.50;;
83199;SDS011;73092;49.132;8.920;2023-11-19T12:37:29;4.15;;;2.22;;
83199;SDS011;73092;49.132;8.920;2023-11-19T12:39:57;3.13;;;1.90;;
83199;SDS011;73092;49.132;8.920;2023-11-19T12:42:36;4.00;;;2.53;;
83199;SDS011;73092;49.132;8.920;2023-11-19T12:45:02;3.00;;;2.65;;
83199;SDS011;73092;49.132;8.920;2023-11-19T12:47:28;5.65;;;3.28;;
83199;SDS011;73092;49.132;8.920;2023-11-19T12:49:56;4.83;;;2.50;;
83199;SDS011;73092;49.132;8.920;2023-11-19T12:52:22;4.30;;;2.00;;
83199;SDS011;73092;49.132;8.920;2023-11-19T12:54:48;5.07;;;3.15;;
83199;SDS011;73092;49.132;8.920;2023-11-19T12:57:14;5.47;;;3.17;;
83199;SDS011;73092;49.132;8.920;2023-11-19T12:59:41;4.55;;;3.10;;
83199;SDS011;73092;49.132;8.920;2023-11-19T13:02:08;7.35;;;2.80;;
83199;SDS011;73092;49.132;8.920;2023-11-19T13:04:34;4.88;;;2.80;;
83199;SDS011;73092;49.132;8.920;2023-11-19T13:06:59;4.72;;;2.83;;
83199;SDS011;73092;49.132;8.920;2023-11-19T13:09:26;4.38;;;2.10;;
83199;SDS011;73092;49.132;8.920;2023-11-19T13:11:53;3.97;;;2.45;;
83199;SDS011;73092;49.132;8.920;2023-11-19T13:14:19;9.50;;;2.75;;
83199;SDS011;73092;49.132;8.920;2023-11-19T13:16:45;6.72;;;2.60;;
83199;SDS011;73092;49.132;8.920;2023-11-19T13:19:11;9.93;;;4.80;;
83199;SDS011;73092;49.132;8.920;2023-11-19T13:21:37;6.20;;;3.17;;
83199;SDS011;73092;49.132;8.920;2023-11-19T13:24:04;5.68;;;2.90;;
83199;SDS011;73092;49.132;8.920;2023-11-19T13:26:31;5.78;;;2.80;;
83199;SDS011;73092;49.132;8.920;2023-11-19T13:28:56;10.00;;;2.83;;
83199;SDS011;73092;49.132;8.920;2023-11-19T13:31:22;4.25;;;2.72;;
83199;SDS011;73092;49.132;8.920;2023-11-19T13:33:48;4.20;;;2.40;;
83199;SDS011;73092;49.132;8.920;2023-11-19T13:36:14;5.33;;;2.27;;
83199;SDS011;73092;49.132;8.920;2023-11-19T13:38:39;7.63;;;2.47;;
83199;SDS011;73092;49.132;8.920;2023-11-19T13:41:07;7.20;;;2.55;;
83199;SDS011;73092;49.132;8.920;2023-11-19T13:43:35;3.55;;;2.53;;
83199;SDS011;73092;49.132;8.920;2023-11-19T13:46:00;8.95;;;2.20;;
83199;SDS011;73092;49.132;8.920;2023-11-19T13:48:26;4.43;;;3.00;;
83199;SDS011;73092;49.132;8.920;2023-11-19T13:50:52;3.90;;;3.00;;
83199;SDS011;73092;49.132;8.920;2023-11-19T13:53:18;5.60;;;1.98;;
83199;SDS011;73092;49.132;8.920;2023-11-19T13:55:43;4.57;;;2.40;;
83199;SDS011;73092;49.132;8.920;2023-11-19T13:58:09;4.87;;;2.30;;
83199;SDS011;73092;49.132;8.920;2023-11-19T14:00:35;4.57;;;2.30;;
83199;SDS011;73092;49.132;8.920;2023-11-19T14:03:00;4.90;;;2.30;;
83199;SDS011;73092;49.132;8.920;2023-11-19T14:05:26;3.85;;;2.40;;
83199;SDS011;73092;49.132;8.920;2023-11-19T14:07:51;6.07;;;3.37;;
83199;SDS011;73092;49.132;8.920;2023-11-19T14:10:20;5.32;;;2.88;;
83199;SDS011;73092;49.132;8.920;2023-11-19T14:12:45;2.90;;;2.45;;
83199;SDS011;73092;49.132;8.920;2023-11-19T14:15:10;3.50;;;2.57;;
83199;SDS011;73092;49.132;8.920;2023-11-19T14:17:37;9.02;;;2.70;;
83199;SDS011;73092;49.132;8.920;2023-11-19T14:20:03;4.35;;;2.30;;
83199;SDS011;73092;49.132;8.920;2023-11-19T14:22:38;5.65;;;2.38;;
83199;SDS011;73092;49.132;8.920;2023-11-19T14:25:04;5.40;;;2.78;;
83199;SDS011;73092;49.132;8.920;2023-11-19T14:27:33;2.85;;;2.20;;
83199;SDS011;73092;49.132;8.920;2023-11-19T14:29:58;5.60;;;2.30;;
83199;SDS011;73092;49.132;8.920;2023-11-19T14:32:23;5.33;;;2.30;;
83199;SDS011;73092;49.132;8.920;2023-11-19T14:34:49;9.33;;;2.80;;
83199;SDS011;73092;49.132;8.920;2023-11-19T14:37:14;6.27;;;2.57;;
83199;SDS011;73092;49.132;8.920;2023-11-19T14:39:39;4.63;;;2.53;;
83199;SDS011;73092;49.132;8.920;2023-11-19T14:42:05;8.47;;;2.30;;
83199;SDS011;73092;49.132;8.920;2023-11-19T14:44:30;6.43;;;2.38;;
83199;SDS011;73092;49.132;8.920;2023-11-19T14:46:56;4.78;;;2.15;;
83199;SDS011;73092;49.132;8.920;2023-11-19T14:49:22;3.55;;;1.90;;
83199;SDS011;73092;49.132;8.920;2023-11-19T14:51:48;4.50;;;2.20;;
83199;SDS011;73092;49.132;8.920;2023-11-19T14:54:14;4.03;;;1.92;;
83199;SDS011;73092;49.132;8.920;2023-11-19T14:56:41;7.10;;;2.40;;
83199;SDS011;73092;49.132;8.920;2023-11-19T14:59:06;6.90;;;2.90;;
83199;SDS011;73092;49.132;8.920;2023-11-19T15:01:32;8.32;;;2.35;;
83199;SDS011;73092;49.132;8.920;2023-11-19T15:03:57;5.13;;;2.42;;
83199;SDS011;73092;49.132;8.920;2023-11-19T15:06:23;5.37;;;2.53;;
83199;SDS011;73092;49.132;8.920;2023-11-19T15:08:51;3.08;;;2.28;;
83199;SDS011;73092;49.132;8.920;2023-11-19T15:11:16;4.40;;;2.00;;
83199;SDS011;73092;49.132;8.920;2023-11-19T15:13:42;6.93;;;2.90;;
83199;SDS011;73092;49.132;8.920;2023-11-19T15:16:07;6.00;;;2.47;;
83199;SDS011;73092;49.132;8.920;2023-11-19T15:18:36;5.80;;;2.42;;
83199;SDS011;73092;49.132;8.920;2023-11-19T15:21:02;10.20;;;2.30;;
83199;SDS011;73092;49.132;8.920;2023-11-19T15:23:28;8.85;;;3.42;;
83199;SDS011;73092;49.132;8.920;2023-11-19T15:25:55;7.30;;;2.58;;
83199;SDS011;73092;49.132;8.920;2023-11-19T15:28:21;5.78;;;3.35;;
83199;SDS011;73092;49.132;8.920;2023-11-19T15:30:46;4.70;;;2.65;;
83199;SDS011;73092;49.132;8.920;2023-11-19T15:33:12;5.75;;;2.90;;
83199;SDS011;73092;49.132;8.920;2023-11-19T15:35:37;7.28;;;2.90;;
83199;SDS011;73092;49.132;8.920;2023-11-19T15:38:04;5.88;;;2.85;;
83199;SDS011;73092;49.132;8.920;2023-11-19T15:40:32;3.80;;;2.33;;
83199;SDS011;73092;49.132;8.920;2023-11-19T15:42:57;6.70;;;3.35;;
83199;SDS011;73092;49.132;8.920;2023-11-19T15:45:22;6.77;;;3.17;;
83199;SDS011;73092;49.132;8.920;2023-11-19T15:47:49;3.78;;;2.53;;
83199;SDS011;73092;49.132;8.920;2023-11-19T15:50:14;13.20;;;2.53;;
83199;SDS011;73092;49.132;8.920;2023-11-19T15:52:40;10.73;;;2.78;;
83199;SDS011;73092;49.132;8.920;2023-11-19T15:55:05;6.45;;;2.70;;
83199;SDS011;73092;49.132;8.920;2023-11-19T15:57:30;3.17;;;2.55;;
83199;SDS011;73092;49.132;8.920;2023-11-19T15:59:56;5.17;;;3.00;;
83199;SDS011;73092;49.132;8.920;2023-11-19T16:02:21;4.25;;;2.40;;
83199;SDS011;73092;49.132;8.920;2023-11-19T16:04:47;5.15;;;2.85;;
83199;SDS011;73092;49.132;8.920;2023-11-19T16:07:16;7.25;;;2.38;;
83199;SDS011;73092;49.132;8.920;2023-11-19T16:09:41;3.97;;;2.38;;
83199;SDS011;73092;49.132;8.920;2023-11-19T16:12:08;4.05;;;1.95;;
83199;SDS011;73092;49.132;8.920;2023-11-19T16:14:33;8.03;;;3.73;;
83199;SDS011;73092;49.132;8.920;2023-11-19T16:17:00;10.52;;;3.47;;
83199;SDS011;73092;49.132;8.920;2023-11-19T16:19:25;6.60;;;2.88;;
83199;SDS011;73092;49.132;8.920;2023-11-19T16:21:51;6.22;;;3.53;;
83199;SDS011;73092;49.132;8.920;2023-11-19T16:24:17;8.18;;;3.72;;
83199;SDS011;73092;49.132;8.920;2023-11-19T16:26:42;4.68;;;3.05;;
83199;SDS011;73092;49.132;8.920;2023-11-19T16:29:08;4.80;;;2.60;;